sensor_id;sensor_type;location;lat;lon;timestamp;P1;durP1;ratioP1;P2;durP2;ratioP2
74223;SDS011;62585;49.706;18.216;2022-12-26T00:02:13;10.45;;;4.35;;
74223;SDS011;62585;49.706;18.216;2022-12-26T00:04:39;13.65;;;4.82;;
74223;SDS011;62585;49.706;18.216;2022-12-26T00:07:05;7.90;;;4.00;;
74223;SDS011;62585;49.706;18.216;2022-12-26T00:09:31;9.65;;;4.68;;
74223;SDS011;62585;49.706;18.216;2022-12-26T00:11:58;9.95;;;3.95;;
74223;SDS011;62585;49.706;18.216;2022-12-26T00:14:24;8.98;;;4.47;;
74223;SDS011;62585;49.706;18.216;2022-12-26T00:16:49;8.70;;;4.32;;
74223;SDS011;62585;49.706;18.216;2022-12-26T00:19:15;11.88;;;4.70;;
74223;SDS011;62585;49.706;18.216;2022-12-26T00:21:41;9.50;;;4.63;;
74223;SDS011;62585;49.706;18.216;2022-12-26T00:24:08;7.65;;;4.45;;
74223;SDS011;62585;49.706;18.216;2022-12-26T00:26:36;10.38;;;4.85;;
74223;SDS011;62585;49.706;18.216;2022-12-26T00:29:02;8.57;;;3.90;;
74223;SDS011;62585;49.706;18.216;2022-12-26T00:31:29;11.93;;;4.53;;
74223;SDS011;62585;49.706;18.216;2022-12-26T00:33:56;9.45;;;5.00;;
74223;SDS011;62585;49.706;18.216;2022-12-26T00:36:24;7.90;;;4.13;;
74223;SDS011;62585;49.706;18.216;2022-12-26T00:38:52;12.43;;;5.00;;
74223;SDS011;62585;49.706;18.216;2022-12-26T00:41:18;10.05;;;4.40;;
74223;SDS011;62585;49.706;18.216;2022-12-26T00:43:45;10.80;;;4.68;;
74223;SDS011;62585;49.706;18.216;2022-12-26T00:46:11;9.00;;;4.75;;
74223;SDS011;62585;49.706;18.216;2022-12-26T00:48:39;10.00;;;4.82;;
74223;SDS011;62585;49.706;18.216;2022-12-26T00:51:05;10.30;;;5.22;;
74223;SDS011;62585;49.706;18.216;2022-12-26T00:53:31;9.25;;;4.72;;
74223;SDS011;62585;49.706;18.216;2022-12-26T00:55:57;10.57;;;4.97;;
74223;SDS011;62585;49.706;18.216;2022-12-26T00:58:23;8.15;;;4.82;;
74223;SDS011;62585;49.706;18.216;2022-12-26T01:00:50;8.50;;;4.65;;
74223;SDS011;62585;49.706;18.216;2022-12-26T01:03:16;7.45;;;4.38;;
74223;SDS011;62585;49.706;18.216;2022-12-26T01:08:10;8.95;;;4.53;;
74223;SDS011;62585;49.706;18.216;2022-12-26T01:10:37;10.43;;;4.55;;
74223;SDS011;62585;49.706;18.216;2022-12-26T01:13:05;8.13;;;4.53;;
74223;SDS011;62585;49.706;18.216;2022-12-26T01:15:31;7.95;;;4.70;;
74223;SDS011;62585;49.706;18.216;2022-12-26T01:17:59;10.13;;;4.68;;
74223;SDS011;62585;49.706;18.216;2022-12-26T01:20:26;12.45;;;5.65;;
74223;SDS011;62585;49.706;18.216;2022-12-26T01:22:52;9.63;;;4.40;;
74223;SDS011;62585;49.706;18.216;2022-12-26T01:25:19;12.98;;;4.57;;
74223;SDS011;62585;49.706;18.216;2022-12-26T01:27:45;10.50;;;4.75;;
74223;SDS011;62585;49.706;18.216;2022-12-26T01:30:10;8.93;;;4.22;;
74223;SDS011;62585;49.706;18.216;2022-12-26T01:32:37;8.65;;;5.25;;
74223;SDS011;62585;49.706;18.216;2022-12-26T01:35:03;10.65;;;4.78;;
74223;SDS011;62585;49.706;18.216;2022-12-26T01:37:29;11.63;;;5.78;;
74223;SDS011;62585;49.706;18.216;2022-12-26T01:39:54;8.48;;;5.50;;
74223;SDS011;62585;49.706;18.216;2022-12-26T01:42:21;12.93;;;5.95;;
74223;SDS011;62585;49.706;18.216;2022-12-26T01:45:04;7.97;;;4.15;;
74223;SDS011;62585;49.706;18.216;2022-12-26T01:47:44;13.00;;;4.00;;
74223;SDS011;62585;49.706;18.216;2022-12-26T01:50:20;8.18;;;4.47;;
74223;SDS011;62585;49.706;18.216;2022-12-26T01:52:51;5.22;;;3.40;;
74223;SDS011;62585;49.706;18.216;2022-12-26T01:55:19;8.45;;;4.32;;
74223;SDS011;62585;49.706;18.216;2022-12-26T01:57:47;6.30;;;3.50;;
74223;SDS011;62585;49.706;18.216;2022-12-26T02:00:18;6.88;;;4.28;;
74223;SDS011;62585;49.706;18.216;2022-12-26T02:02:44;9.65;;;5.18;;
74223;SDS011;62585;49.706;18.216;2022-12-26T02:05:30;7.35;;;4.22;;
74223;SDS011;62585;49.706;18.216;2022-12-26T02:07:59;10.05;;;4.78;;
74223;SDS011;62585;49.706;18.216;2022-12-26T02:10:30;13.15;;;5.70;;
74223;SDS011;62585;49.706;18.216;2022-12-26T02:13:00;8.63;;;4.65;;
74223;SDS011;62585;49.706;18.216;2022-12-26T02:15:26;10.90;;;4.57;;
74223;SDS011;62585;49.706;18.216;2022-12-26T02:17:52;14.90;;;5.97;;
74223;SDS011;62585;49.706;18.216;2022-12-26T02:20:25;9.00;;;4.80;;
74223;SDS011;62585;49.706;18.216;2022-12-26T02:28:36;9.77;;;4.28;;
74223;SDS011;62585;49.706;18.216;2022-12-26T02:31:23;9.15;;;5.18;;
74223;SDS011;62585;49.706;18.216;2022-12-26T02:34:15;7.30;;;4.53;;
74223;SDS011;62585;49.706;18.216;2022-12-26T02:42:27;5.65;;;3.25;;
74223;SDS011;62585;49.706;18.216;2022-12-26T02:45:32;8.48;;;3.58;;
74223;SDS011;62585;49.706;18.216;2022-12-26T02:51:36;6.40;;;3.85;;
74223;SDS011;62585;49.706;18.216;2022-12-26T02:57:51;5.10;;;3.28;;
74223;SDS011;62585;49.706;18.216;2022-12-26T03:00:58;8.70;;;3.22;;
74223;SDS011;62585;49.706;18.216;2022-12-26T03:03:49;5.43;;;3.42;;
74223;SDS011;62585;49.706;18.216;2022-12-26T03:06:36;4.97;;;2.80;;
74223;SDS011;62585;49.706;18.216;2022-12-26T03:09:25;5.43;;;2.40;;
74223;SDS011;62585;49.706;18.216;2022-12-26T03:15:08;12.35;;;2.22;;
74223;SDS011;62585;49.706;18.216;2022-12-26T03:17:40;5.93;;;2.88;;
74223;SDS011;62585;49.706;18.216;2022-12-26T03:20:22;6.25;;;4.35;;
74223;SDS011;62585;49.706;18.216;2022-12-26T03:28:33;6.97;;;3.17;;
74223;SDS011;62585;49.706;18.216;2022-12-26T03:31:00;6.70;;;3.63;;
74223;SDS011;62585;49.706;18.216;2022-12-26T03:33:37;6.35;;;3.10;;
74223;SDS011;62585;49.706;18.216;2022-12-26T03:40:03;7.18;;;3.70;;
74223;SDS011;62585;49.706;18.216;2022-12-26T03:44:07;10.18;;;4.10;;
74223;SDS011;62585;49.706;18.216;2022-12-26T03:49:58;6.75;;;3.40;;
74223;SDS011;62585;49.706;18.216;2022-12-26T03:53:04;11.40;;;5.47;;
74223;SDS011;62585;49.706;18.216;2022-12-26T03:56:09;9.00;;;4.00;;
74223;SDS011;62585;49.706;18.216;2022-12-26T03:59:09;10.63;;;4.35;;
74223;SDS011;62585;49.706;18.216;2022-12-26T04:01:58;12.38;;;4.35;;
74223;SDS011;62585;49.706;18.216;2022-12-26T04:04:46;8.40;;;3.63;;
74223;SDS011;62585;49.706;18.216;2022-12-26T04:07:35;5.80;;;4.07;;
74223;SDS011;62585;49.706;18.216;2022-12-26T04:13:16;7.97;;;4.30;;
74223;SDS011;62585;49.706;18.216;2022-12-26T04:16:08;8.55;;;4.50;;
74223;SDS011;62585;49.706;18.216;2022-12-26T04:25:02;9.73;;;4.22;;
74223;SDS011;62585;49.706;18.216;2022-12-26T04:27:49;8.13;;;4.40;;
74223;SDS011;62585;49.706;18.216;2022-12-26T04:30:33;11.20;;;4.68;;
74223;SDS011;62585;49.706;18.216;2022-12-26T04:33:36;6.93;;;4.18;;
74223;SDS011;62585;49.706;18.216;2022-12-26T04:36:36;12.52;;;5.68;;
74223;SDS011;62585;49.706;18.216;2022-12-26T04:39:29;13.05;;;6.10;;
74223;SDS011;62585;49.706;18.216;2022-12-26T04:42:17;10.25;;;5.93;;
74223;SDS011;62585;49.706;18.216;2022-12-26T04:45:05;8.52;;;5.65;;
74223;SDS011;62585;49.706;18.216;2022-12-26T04:47:32;9.93;;;5.40;;
74223;SDS011;62585;49.706;18.216;2022-12-26T04:49:58;14.18;;;6.18;;
74223;SDS011;62585;49.706;18.216;2022-12-26T04:52:40;11.48;;;5.68;;
74223;SDS011;62585;49.706;18.216;2022-12-26T04:55:26;12.00;;;5.60;;
74223;SDS011;62585;49.706;18.216;2022-12-26T04:57:53;13.48;;;5.65;;
74223;SDS011;62585;49.706;18.216;2022-12-26T05:00:19;10.13;;;5.53;;
74223;SDS011;62585;49.706;18.216;2022-12-26T05:02:46;8.07;;;5.15;;
74223;SDS011;62585;49.706;18.216;2022-12-26T05:05:31;12.63;;;5.18;;
74223;SDS011;62585;49.706;18.216;2022-12-26T05:08:26;9.30;;;4.63;;
74223;SDS011;62585;49.706;18.216;2022-12-26T05:11:16;7.55;;;4.35;;
74223;SDS011;62585;49.706;18.216;2022-12-26T05:13:41;11.88;;;6.30;;
74223;SDS011;62585;49.706;18.216;2022-12-26T05:16:07;7.47;;;3.75;;
74223;SDS011;62585;49.706;18.216;2022-12-26T05:18:51;7.22;;;3.85;;
74223;SDS011;62585;49.706;18.216;2022-12-26T05:21:36;6.25;;;4.15;;
74223;SDS011;62585;49.706;18.216;2022-12-26T05:24:20;8.20;;;5.30;;
74223;SDS011;62585;49.706;18.216;2022-12-26T05:27:08;11.43;;;5.90;;
74223;SDS011;62585;49.706;18.216;2022-12-26T05:29:56;18.23;;;4.32;;
74223;SDS011;62585;49.706;18.216;2022-12-26T05:32:22;13.00;;;6.63;;
74223;SDS011;62585;49.706;18.216;2022-12-26T05:35:07;10.18;;;5.63;;
74223;SDS011;62585;49.706;18.216;2022-12-26T05:37:33;10.98;;;6.25;;
74223;SDS011;62585;49.706;18.216;2022-12-26T05:39:59;7.45;;;5.68;;
74223;SDS011;62585;49.706;18.216;2022-12-26T05:42:25;11.75;;;7.20;;
74223;SDS011;62585;49.706;18.216;2022-12-26T05:44:51;10.65;;;6.05;;
74223;SDS011;62585;49.706;18.216;2022-12-26T05:47:17;10.93;;;6.18;;
74223;SDS011;62585;49.706;18.216;2022-12-26T05:49:42;10.95;;;4.85;;
74223;SDS011;62585;49.706;18.216;2022-12-26T05:52:08;10.88;;;6.60;;
74223;SDS011;62585;49.706;18.216;2022-12-26T05:54:34;7.43;;;4.65;;
74223;SDS011;62585;49.706;18.216;2022-12-26T05:57:00;10.02;;;6.10;;
74223;SDS011;62585;49.706;18.216;2022-12-26T05:59:26;13.18;;;6.38;;
74223;SDS011;62585;49.706;18.216;2022-12-26T06:01:52;14.63;;;7.65;;
74223;SDS011;62585;49.706;18.216;2022-12-26T06:04:17;15.82;;;8.43;;
74223;SDS011;62585;49.706;18.216;2022-12-26T06:06:43;10.27;;;6.70;;
74223;SDS011;62585;49.706;18.216;2022-12-26T06:09:09;16.55;;;7.63;;
74223;SDS011;62585;49.706;18.216;2022-12-26T06:11:35;10.82;;;7.55;;
74223;SDS011;62585;49.706;18.216;2022-12-26T06:14:00;14.38;;;7.43;;
74223;SDS011;62585;49.706;18.216;2022-12-26T06:16:26;8.07;;;4.93;;
74223;SDS011;62585;49.706;18.216;2022-12-26T06:18:55;13.98;;;7.72;;
74223;SDS011;62585;49.706;18.216;2022-12-26T06:21:21;12.68;;;6.80;;
74223;SDS011;62585;49.706;18.216;2022-12-26T06:23:48;13.35;;;6.88;;
74223;SDS011;62585;49.706;18.216;2022-12-26T06:26:15;13.50;;;5.53;;
74223;SDS011;62585;49.706;18.216;2022-12-26T06:28:41;12.48;;;7.65;;
74223;SDS011;62585;49.706;18.216;2022-12-26T06:31:09;14.25;;;8.07;;
74223;SDS011;62585;49.706;18.216;2022-12-26T06:33:40;12.90;;;7.03;;
74223;SDS011;62585;49.706;18.216;2022-12-26T06:36:07;12.93;;;7.68;;
74223;SDS011;62585;49.706;18.216;2022-12-26T06:38:35;10.50;;;5.93;;
74223;SDS011;62585;49.706;18.216;2022-12-26T06:41:05;11.07;;;5.53;;
74223;SDS011;62585;49.706;18.216;2022-12-26T06:43:35;11.40;;;5.88;;
74223;SDS011;62585;49.706;18.216;2022-12-26T06:46:02;12.50;;;7.13;;
74223;SDS011;62585;49.706;18.216;2022-12-26T06:50:55;13.27;;;6.90;;
74223;SDS011;62585;49.706;18.216;2022-12-26T06:53:21;13.77;;;6.97;;
74223;SDS011;62585;49.706;18.216;2022-12-26T06:58:14;10.93;;;7.00;;
74223;SDS011;62585;49.706;18.216;2022-12-26T07:00:41;13.35;;;7.25;;
74223;SDS011;62585;49.706;18.216;2022-12-26T07:03:07;13.00;;;6.90;;
74223;SDS011;62585;49.706;18.216;2022-12-26T07:05:36;10.95;;;6.57;;
74223;SDS011;62585;49.706;18.216;2022-12-26T07:08:02;11.18;;;6.55;;
74223;SDS011;62585;49.706;18.216;2022-12-26T07:10:28;13.07;;;7.53;;
74223;SDS011;62585;49.706;18.216;2022-12-26T07:12:58;15.85;;;8.13;;
74223;SDS011;62585;49.706;18.216;2022-12-26T07:15:24;14.23;;;7.47;;
74223;SDS011;62585;49.706;18.216;2022-12-26T07:17:50;10.95;;;6.28;;
74223;SDS011;62585;49.706;18.216;2022-12-26T07:20:16;12.48;;;6.15;;
74223;SDS011;62585;49.706;18.216;2022-12-26T07:22:42;12.95;;;6.50;;
74223;SDS011;62585;49.706;18.216;2022-12-26T07:25:08;10.35;;;6.25;;
74223;SDS011;62585;49.706;18.216;2022-12-26T07:27:34;9.60;;;5.88;;
74223;SDS011;62585;49.706;18.216;2022-12-26T07:30:00;9.88;;;4.88;;
74223;SDS011;62585;49.706;18.216;2022-12-26T07:32:26;11.98;;;5.80;;
74223;SDS011;62585;49.706;18.216;2022-12-26T07:34:52;8.85;;;5.47;;
74223;SDS011;62585;49.706;18.216;2022-12-26T07:37:17;10.75;;;6.18;;
74223;SDS011;62585;49.706;18.216;2022-12-26T07:39:43;7.80;;;5.15;;
74223;SDS011;62585;49.706;18.216;2022-12-26T07:42:09;14.27;;;7.60;;
74223;SDS011;62585;49.706;18.216;2022-12-26T07:44:35;9.82;;;6.25;;
74223;SDS011;62585;49.706;18.216;2022-12-26T07:47:03;15.45;;;8.93;;
74223;SDS011;62585;49.706;18.216;2022-12-26T07:49:29;10.00;;;6.82;;
74223;SDS011;62585;49.706;18.216;2022-12-26T07:51:55;11.43;;;5.95;;
74223;SDS011;62585;49.706;18.216;2022-12-26T07:54:21;10.10;;;5.40;;
74223;SDS011;62585;49.706;18.216;2022-12-26T07:56:47;12.35;;;5.90;;
74223;SDS011;62585;49.706;18.216;2022-12-26T07:59:13;9.43;;;6.15;;
74223;SDS011;62585;49.706;18.216;2022-12-26T08:04:06;7.82;;;4.72;;
74223;SDS011;62585;49.706;18.216;2022-12-26T08:06:32;5.97;;;3.22;;
74223;SDS011;62585;49.706;18.216;2022-12-26T08:08:58;10.65;;;4.90;;
74223;SDS011;62585;49.706;18.216;2022-12-26T08:11:23;4.65;;;3.55;;
74223;SDS011;62585;49.706;18.216;2022-12-26T08:13:50;6.45;;;5.05;;
74223;SDS011;62585;49.706;18.216;2022-12-26T08:16:16;11.70;;;5.65;;
74223;SDS011;62585;49.706;18.216;2022-12-26T08:18:44;12.68;;;6.15;;
74223;SDS011;62585;49.706;18.216;2022-12-26T08:21:10;9.95;;;5.10;;
74223;SDS011;62585;49.706;18.216;2022-12-26T08:23:36;9.18;;;5.00;;
74223;SDS011;62585;49.706;18.216;2022-12-26T08:26:03;7.13;;;4.25;;
74223;SDS011;62585;49.706;18.216;2022-12-26T08:28:33;6.63;;;3.92;;
74223;SDS011;62585;49.706;18.216;2022-12-26T08:30:59;6.13;;;3.55;;
74223;SDS011;62585;49.706;18.216;2022-12-26T08:33:30;6.30;;;3.92;;
74223;SDS011;62585;49.706;18.216;2022-12-26T08:35:59;6.93;;;4.88;;
74223;SDS011;62585;49.706;18.216;2022-12-26T08:38:29;4.40;;;2.60;;
74223;SDS011;62585;49.706;18.216;2022-12-26T08:40:58;6.60;;;3.08;;
74223;SDS011;62585;49.706;18.216;2022-12-26T08:43:24;5.43;;;3.35;;
74223;SDS011;62585;49.706;18.216;2022-12-26T08:46:06;7.97;;;3.63;;
74223;SDS011;62585;49.706;18.216;2022-12-26T08:48:33;7.22;;;3.63;;
74223;SDS011;62585;49.706;18.216;2022-12-26T08:51:04;6.60;;;3.95;;
74223;SDS011;62585;49.706;18.216;2022-12-26T08:53:33;5.63;;;3.20;;
74223;SDS011;62585;49.706;18.216;2022-12-26T08:56:00;7.30;;;4.03;;
74223;SDS011;62585;49.706;18.216;2022-12-26T08:58:27;10.32;;;4.43;;
74223;SDS011;62585;49.706;18.216;2022-12-26T09:00:53;8.10;;;3.63;;
74223;SDS011;62585;49.706;18.216;2022-12-26T09:03:19;6.90;;;4.05;;
74223;SDS011;62585;49.706;18.216;2022-12-26T09:05:45;8.85;;;5.25;;
74223;SDS011;62585;49.706;18.216;2022-12-26T09:08:11;7.78;;;4.65;;
74223;SDS011;62585;49.706;18.216;2022-12-26T09:10:37;7.20;;;3.60;;
74223;SDS011;62585;49.706;18.216;2022-12-26T09:13:04;7.75;;;4.80;;
74223;SDS011;62585;49.706;18.216;2022-12-26T09:15:30;7.13;;;3.80;;
74223;SDS011;62585;49.706;18.216;2022-12-26T09:17:55;7.18;;;3.53;;
74223;SDS011;62585;49.706;18.216;2022-12-26T09:20:21;6.55;;;3.85;;
74223;SDS011;62585;49.706;18.216;2022-12-26T09:22:47;5.68;;;3.60;;
74223;SDS011;62585;49.706;18.216;2022-12-26T09:25:18;7.95;;;4.85;;
74223;SDS011;62585;49.706;18.216;2022-12-26T09:27:46;7.28;;;3.65;;
74223;SDS011;62585;49.706;18.216;2022-12-26T09:30:12;6.88;;;4.10;;
74223;SDS011;62585;49.706;18.216;2022-12-26T09:32:38;10.00;;;5.35;;
74223;SDS011;62585;49.706;18.216;2022-12-26T09:35:04;10.35;;;5.45;;
74223;SDS011;62585;49.706;18.216;2022-12-26T09:39:57;8.50;;;4.15;;
74223;SDS011;62585;49.706;18.216;2022-12-26T09:42:38;5.78;;;3.55;;
74223;SDS011;62585;49.706;18.216;2022-12-26T09:45:13;7.07;;;3.42;;
74223;SDS011;62585;49.706;18.216;2022-12-26T09:50:21;5.28;;;3.17;;
74223;SDS011;62585;49.706;18.216;2022-12-26T09:55:28;6.28;;;3.75;;
74223;SDS011;62585;49.706;18.216;2022-12-26T10:00:50;5.05;;;3.05;;
74223;SDS011;62585;49.706;18.216;2022-12-26T10:03:20;6.68;;;3.60;;
74223;SDS011;62585;49.706;18.216;2022-12-26T10:05:59;4.28;;;2.80;;
74223;SDS011;62585;49.706;18.216;2022-12-26T10:16:49;6.38;;;2.63;;
74223;SDS011;62585;49.706;18.216;2022-12-26T10:24:52;5.53;;;3.03;;
74223;SDS011;62585;49.706;18.216;2022-12-26T10:27:21;4.03;;;2.85;;
74223;SDS011;62585;49.706;18.216;2022-12-26T10:29:52;4.07;;;2.88;;
74223;SDS011;62585;49.706;18.216;2022-12-26T10:32:32;4.25;;;2.97;;
74223;SDS011;62585;49.706;18.216;2022-12-26T10:37:47;5.97;;;3.40;;
74223;SDS011;62585;49.706;18.216;2022-12-26T10:40:18;5.60;;;3.03;;
74223;SDS011;62585;49.706;18.216;2022-12-26T10:42:54;7.97;;;4.15;;
74223;SDS011;62585;49.706;18.216;2022-12-26T10:45:29;6.97;;;3.13;;
74223;SDS011;62585;49.706;18.216;2022-12-26T10:50:47;5.15;;;2.50;;
74223;SDS011;62585;49.706;18.216;2022-12-26T10:53:14;6.35;;;2.88;;
74223;SDS011;62585;49.706;18.216;2022-12-26T10:55:41;3.88;;;2.17;;
74223;SDS011;62585;49.706;18.216;2022-12-26T11:00:47;5.68;;;2.60;;
74223;SDS011;62585;49.706;18.216;2022-12-26T11:03:14;4.65;;;1.95;;
74223;SDS011;62585;49.706;18.216;2022-12-26T11:05:49;5.65;;;2.72;;
74223;SDS011;62585;49.706;18.216;2022-12-26T11:11:09;5.13;;;2.42;;
74223;SDS011;62585;49.706;18.216;2022-12-26T11:13:49;2.63;;;1.70;;
74223;SDS011;62585;49.706;18.216;2022-12-26T11:16:24;4.28;;;2.25;;
74223;SDS011;62585;49.706;18.216;2022-12-26T11:18:55;5.25;;;2.85;;
74223;SDS011;62585;49.706;18.216;2022-12-26T11:21:23;4.88;;;3.30;;
74223;SDS011;62585;49.706;18.216;2022-12-26T11:23:51;3.50;;;2.15;;
74223;SDS011;62585;49.706;18.216;2022-12-26T11:26:35;4.50;;;2.88;;
74223;SDS011;62585;49.706;18.216;2022-12-26T11:29:08;3.97;;;2.55;;
74223;SDS011;62585;49.706;18.216;2022-12-26T11:31:40;4.18;;;2.42;;
74223;SDS011;62585;49.706;18.216;2022-12-26T11:34:23;5.10;;;2.17;;
74223;SDS011;62585;49.706;18.216;2022-12-26T11:36:58;3.40;;;2.33;;
74223;SDS011;62585;49.706;18.216;2022-12-26T11:39:25;3.22;;;1.90;;
74223;SDS011;62585;49.706;18.216;2022-12-26T11:41:53;4.35;;;2.78;;
74223;SDS011;62585;49.706;18.216;2022-12-26T11:44:24;5.05;;;3.05;;
74223;SDS011;62585;49.706;18.216;2022-12-26T11:47:15;4.28;;;2.92;;
74223;SDS011;62585;49.706;18.216;2022-12-26T11:49:45;4.28;;;2.92;;
74223;SDS011;62585;49.706;18.216;2022-12-26T11:52:41;3.75;;;2.63;;
74223;SDS011;62585;49.706;18.216;2022-12-26T12:00:38;5.82;;;3.28;;
74223;SDS011;62585;49.706;18.216;2022-12-26T12:03:25;5.28;;;2.92;;
74223;SDS011;62585;49.706;18.216;2022-12-26T12:19:34;5.15;;;3.22;;
74223;SDS011;62585;49.706;18.216;2022-12-26T12:44:14;4.15;;;2.25;;
74223;SDS011;62585;49.706;18.216;2022-12-26T12:52:36;6.55;;;2.80;;
74223;SDS011;62585;49.706;18.216;2022-12-26T12:55:14;5.47;;;3.22;;
74223;SDS011;62585;49.706;18.216;2022-12-26T12:57:52;7.63;;;3.35;;
74223;SDS011;62585;49.706;18.216;2022-12-26T13:00:24;6.95;;;3.72;;
74223;SDS011;62585;49.706;18.216;2022-12-26T13:03:01;4.68;;;3.33;;
74223;SDS011;62585;49.706;18.216;2022-12-26T13:08:14;5.85;;;2.97;;
74223;SDS011;62585;49.706;18.216;2022-12-26T13:10:57;5.30;;;2.75;;
74223;SDS011;62585;49.706;18.216;2022-12-26T13:13:33;6.18;;;3.40;;
74223;SDS011;62585;49.706;18.216;2022-12-26T13:16:11;6.10;;;3.72;;
74223;SDS011;62585;49.706;18.216;2022-12-26T13:18:43;6.47;;;3.78;;
74223;SDS011;62585;49.706;18.216;2022-12-26T13:21:14;6.95;;;3.35;;
74223;SDS011;62585;49.706;18.216;2022-12-26T13:23:43;7.35;;;3.33;;
74223;SDS011;62585;49.706;18.216;2022-12-26T13:26:42;8.70;;;3.83;;
74223;SDS011;62585;49.706;18.216;2022-12-26T13:29:16;4.88;;;3.90;;
74223;SDS011;62585;49.706;18.216;2022-12-26T13:31:48;9.85;;;6.88;;
74223;SDS011;62585;49.706;18.216;2022-12-26T13:34:15;16.88;;;8.77;;
74223;SDS011;62585;49.706;18.216;2022-12-26T13:36:55;14.48;;;8.45;;
74223;SDS011;62585;49.706;18.216;2022-12-26T13:42:03;18.45;;;9.07;;
74223;SDS011;62585;49.706;18.216;2022-12-26T13:45:37;10.90;;;4.68;;
74223;SDS011;62585;49.706;18.216;2022-12-26T13:50:48;19.83;;;11.32;;
74223;SDS011;62585;49.706;18.216;2022-12-26T13:55:55;18.45;;;9.77;;
74223;SDS011;62585;49.706;18.216;2022-12-26T14:07:05;13.15;;;7.82;;
74223;SDS011;62585;49.706;18.216;2022-12-26T14:18:42;12.10;;;7.40;;
74223;SDS011;62585;49.706;18.216;2022-12-26T14:21:35;16.10;;;7.15;;
74223;SDS011;62585;49.706;18.216;2022-12-26T14:30:05;12.18;;;7.57;;
74223;SDS011;62585;49.706;18.216;2022-12-26T14:42:09;14.85;;;7.53;;
74223;SDS011;62585;49.706;18.216;2022-12-26T14:44:57;14.93;;;7.43;;
74223;SDS011;62585;49.706;18.216;2022-12-26T14:55:46;13.07;;;7.63;;
74223;SDS011;62585;49.706;18.216;2022-12-26T15:04:06;15.10;;;7.40;;
74223;SDS011;62585;49.706;18.216;2022-12-26T15:15:32;25.77;;;12.98;;
74223;SDS011;62585;49.706;18.216;2022-12-26T15:20:54;19.48;;;10.35;;
74223;SDS011;62585;49.706;18.216;2022-12-26T15:34:50;9.65;;;4.72;;
74223;SDS011;62585;49.706;18.216;2022-12-26T15:37:58;6.05;;;3.30;;
74223;SDS011;62585;49.706;18.216;2022-12-26T15:46:29;10.55;;;6.40;;
74223;SDS011;62585;49.706;18.216;2022-12-26T15:54:35;20.08;;;10.50;;
74223;SDS011;62585;49.706;18.216;2022-12-26T16:02:44;16.17;;;8.88;;
74223;SDS011;62585;49.706;18.216;2022-12-26T16:05:25;18.20;;;8.88;;
74223;SDS011;62585;49.706;18.216;2022-12-26T16:13:35;15.90;;;8.55;;
74223;SDS011;62585;49.706;18.216;2022-12-26T16:15:48;23.25;;;8.93;;
74223;SDS011;62585;49.706;18.216;2022-12-26T16:18:21;14.80;;;7.80;;
74223;SDS011;62585;49.706;18.216;2022-12-26T16:20:52;19.80;;;9.52;;
74223;SDS011;62585;49.706;18.216;2022-12-26T16:23:40;24.00;;;9.95;;
74223;SDS011;62585;49.706;18.216;2022-12-26T16:26:13;27.60;;;12.73;;
74223;SDS011;62585;49.706;18.216;2022-12-26T16:28:42;13.90;;;7.18;;
74223;SDS011;62585;49.706;18.216;2022-12-26T16:31:09;10.52;;;6.63;;
74223;SDS011;62585;49.706;18.216;2022-12-26T16:33:43;14.77;;;8.52;;
74223;SDS011;62585;49.706;18.216;2022-12-26T16:36:10;17.60;;;10.90;;
74223;SDS011;62585;49.706;18.216;2022-12-26T16:38:43;19.80;;;9.52;;
74223;SDS011;62585;49.706;18.216;2022-12-26T16:41:31;20.38;;;9.48;;
74223;SDS011;62585;49.706;18.216;2022-12-26T16:43:59;10.25;;;5.05;;
74223;SDS011;62585;49.706;18.216;2022-12-26T16:46:58;16.92;;;7.47;;
74223;SDS011;62585;49.706;18.216;2022-12-26T16:49:26;10.07;;;5.38;;
74223;SDS011;62585;49.706;18.216;2022-12-26T16:51:54;12.25;;;7.95;;
74223;SDS011;62585;49.706;18.216;2022-12-26T16:56:56;16.65;;;8.02;;
74223;SDS011;62585;49.706;18.216;2022-12-26T16:59:24;13.55;;;7.45;;
74223;SDS011;62585;49.706;18.216;2022-12-26T17:01:59;10.23;;;5.70;;
74223;SDS011;62585;49.706;18.216;2022-12-26T17:04:26;9.43;;;4.85;;
74223;SDS011;62585;49.706;18.216;2022-12-26T17:06:53;12.20;;;5.75;;
74223;SDS011;62585;49.706;18.216;2022-12-26T17:09:23;11.00;;;4.65;;
74223;SDS011;62585;49.706;18.216;2022-12-26T17:11:55;11.40;;;5.95;;
74223;SDS011;62585;49.706;18.216;2022-12-26T17:14:25;11.75;;;5.15;;
74223;SDS011;62585;49.706;18.216;2022-12-26T17:16:59;6.72;;;2.80;;
74223;SDS011;62585;49.706;18.216;2022-12-26T17:19:27;11.27;;;5.80;;
74223;SDS011;62585;49.706;18.216;2022-12-26T17:24:42;8.20;;;4.93;;
74223;SDS011;62585;49.706;18.216;2022-12-26T17:27:22;8.13;;;5.30;;
74223;SDS011;62585;49.706;18.216;2022-12-26T17:32:38;7.68;;;4.25;;
74223;SDS011;62585;49.706;18.216;2022-12-26T17:35:11;8.85;;;4.75;;
74223;SDS011;62585;49.706;18.216;2022-12-26T17:40:36;8.40;;;4.97;;
74223;SDS011;62585;49.706;18.216;2022-12-26T17:45:37;7.35;;;3.60;;
74223;SDS011;62585;49.706;18.216;2022-12-26T17:48:05;17.60;;;8.30;;
74223;SDS011;62585;49.706;18.216;2022-12-26T17:50:34;11.82;;;7.63;;
74223;SDS011;62585;49.706;18.216;2022-12-26T17:55:58;15.82;;;10.40;;
74223;SDS011;62585;49.706;18.216;2022-12-26T17:58:27;9.98;;;5.50;;
74223;SDS011;62585;49.706;18.216;2022-12-26T18:00:54;8.93;;;5.57;;
74223;SDS011;62585;49.706;18.216;2022-12-26T18:03:20;8.73;;;4.88;;
74223;SDS011;62585;49.706;18.216;2022-12-26T18:05:46;12.98;;;7.88;;
74223;SDS011;62585;49.706;18.216;2022-12-26T18:08:27;12.82;;;8.13;;
74223;SDS011;62585;49.706;18.216;2022-12-26T18:10:57;10.30;;;5.20;;
74223;SDS011;62585;49.706;18.216;2022-12-26T18:13:28;15.43;;;7.90;;
74223;SDS011;62585;49.706;18.216;2022-12-26T18:15:54;15.77;;;8.55;;
74223;SDS011;62585;49.706;18.216;2022-12-26T18:20:59;24.05;;;10.68;;
74223;SDS011;62585;49.706;18.216;2022-12-26T18:23:25;16.48;;;6.22;;
74223;SDS011;62585;49.706;18.216;2022-12-26T18:25:50;14.45;;;7.25;;
74223;SDS011;62585;49.706;18.216;2022-12-26T18:28:18;13.23;;;7.80;;
74223;SDS011;62585;49.706;18.216;2022-12-26T18:30:43;17.65;;;9.02;;
74223;SDS011;62585;49.706;18.216;2022-12-26T18:33:09;10.35;;;5.88;;
74223;SDS011;62585;49.706;18.216;2022-12-26T18:35:36;14.48;;;7.55;;
74223;SDS011;62585;49.706;18.216;2022-12-26T18:38:04;15.98;;;7.10;;
74223;SDS011;62585;49.706;18.216;2022-12-26T18:40:32;15.35;;;6.47;;
74223;SDS011;62585;49.706;18.216;2022-12-26T18:43:00;10.90;;;6.05;;
74223;SDS011;62585;49.706;18.216;2022-12-26T18:45:26;13.10;;;4.80;;
74223;SDS011;62585;49.706;18.216;2022-12-26T18:47:52;7.40;;;4.68;;
74223;SDS011;62585;49.706;18.216;2022-12-26T18:50:18;10.23;;;5.28;;
74223;SDS011;62585;49.706;18.216;2022-12-26T18:52:45;10.55;;;5.63;;
74223;SDS011;62585;49.706;18.216;2022-12-26T18:55:11;9.55;;;5.93;;
74223;SDS011;62585;49.706;18.216;2022-12-26T18:57:37;9.57;;;4.45;;
74223;SDS011;62585;49.706;18.216;2022-12-26T19:00:05;9.85;;;5.68;;
74223;SDS011;62585;49.706;18.216;2022-12-26T19:02:31;12.70;;;6.88;;
74223;SDS011;62585;49.706;18.216;2022-12-26T19:04:57;8.40;;;4.50;;
74223;SDS011;62585;49.706;18.216;2022-12-26T19:07:23;11.50;;;5.05;;
74223;SDS011;62585;49.706;18.216;2022-12-26T19:09:50;11.27;;;5.80;;
74223;SDS011;62585;49.706;18.216;2022-12-26T19:12:20;15.18;;;6.95;;
74223;SDS011;62585;49.706;18.216;2022-12-26T19:14:47;9.93;;;5.70;;
74223;SDS011;62585;49.706;18.216;2022-12-26T19:17:13;8.65;;;4.78;;